Time;durP1;ratioP1;P1;durP2;ratioP2;P2;SDS_P1;SDS_P2;PMS_P1;PMS_P2;Temp;Humidity;BMP_temperature;BMP_pressure;BME280_temperature;BME280_humidity;BME280_pressure;Samples;Min_cycle;Max_cycle;Signal;HPM_P1;HPM_P2
2022/01/10 00:00:20;;;;;;;23.97;13.67;;;3.50;99.90;;;;;;5028323;28;20709;-25
2022/01/10 00:02:53;;;;;;;24.90;13.30;;;3.60;99.90;;;;;;5027400;28;20858;-25
2022/01/10 00:05:21;;;;;;;24.57;13.93;;;3.50;99.90;;;;;;5028075;28;20224;-25
2022/01/10 00:07:49;;;;;;;21.83;13.20;;;3.60;99.90;;;;;;5026825;28;20212;-25
2022/01/10 00:10:17;;;;;;;25.37;13.67;;;3.60;99.90;;;;;;5027775;28;20645;-25
2022/01/10 00:12:44;;;;;;;28.50;13.47;;;3.60;99.90;;;;;;5026274;28;20670;-25
2022/01/10 00:15:15;;;;;;;22.80;13.10;;;3.60;99.90;;;;;;5028256;28;20204;-25
2022/01/10 00:17:45;;;;;;;24.27;13.37;;;3.50;99.90;;;;;;5027190;28;20204;-25
2022/01/10 00:20:17;;;;;;;27.17;13.73;;;3.50;99.90;;;;;;5026122;28;20196;-25
2022/01/10 00:22:48;;;;;;;22.67;13.07;;;3.50;99.90;;;;;;5010405;28;20582;-25
2022/01/10 00:25:22;;;;;;;22.63;13.23;;;3.50;99.90;;;;;;5026241;28;20565;-25
2022/01/10 00:27:53;;;;;;;25.23;13.40;;;3.50;99.90;;;;;;5027840;28;20205;-25
2022/01/10 00:30:24;;;;;;;25.50;12.80;;;3.50;99.90;;;;;;5027505;28;20216;-26
2022/01/10 00:32:52;;;;;;;22.33;12.93;;;3.40;99.90;;;;;;5025492;28;20675;-25
2022/01/10 00:35:20;;;;;;;24.27;12.73;;;3.40;99.90;;;;;;5027680;28;20671;-25
2022/01/10 00:37:47;;;;;;;28.27;13.47;;;3.40;99.90;;;;;;5027642;28;20671;-25
2022/01/10 00:40:16;;;;;;;22.90;13.47;;;3.40;99.90;;;;;;5027390;28;20620;-25
2022/01/10 00:42:52;;;;;;;24.17;14.40;;;3.40;99.90;;;;;;5009488;28;20220;-25
2022/01/10 00:45:23;;;;;;;23.20;12.37;;;3.30;99.90;;;;;;5027620;28;20255;-25
2022/01/10 00:47:50;;;;;;;22.97;13.17;;;3.30;99.90;;;;;;5026781;28;20596;-25
2022/01/10 00:50:18;;;;;;;26.93;14.03;;;3.30;99.90;;;;;;5026033;28;20247;-25
2022/01/10 00:52:47;;;;;;;22.67;13.13;;;3.30;99.90;;;;;;5027528;28;20204;-25
2022/01/10 00:55:17;;;;;;;25.67;13.63;;;3.30;99.90;;;;;;5025532;28;20192;-25
2022/01/10 00:57:44;;;;;;;24.77;13.13;;;3.30;99.90;;;;;;5027440;28;20229;-25
2022/01/10 01:00:18;;;;;;;26.00;13.10;;;3.30;99.90;;;;;;5028006;28;20224;-25
2022/01/10 01:02:46;;;;;;;27.10;13.63;;;3.30;99.90;;;;;;5026672;28;20251;-25
2022/01/10 01:05:17;;;;;;;26.43;13.60;;;3.30;99.90;;;;;;5007790;28;20206;-25
2022/01/10 01:07:44;;;;;;;23.90;13.40;;;3.20;99.90;;;;;;5006026;28;20210;-25
2022/01/10 01:15:20;;;;;;;29.57;14.23;;;3.30;99.90;;;;;;5024082;28;20389;-24
2022/01/10 01:25:57;;;;;;;24.37;12.87;;;3.20;99.90;;;;;;5026244;28;20211;-25
2022/01/10 01:28:28;;;;;;;22.43;12.37;;;3.10;99.90;;;;;;5027887;28;20565;-25
2022/01/10 01:30:55;;;;;;;23.90;12.80;;;3.10;99.90;;;;;;5029571;28;20205;-24
2022/01/10 01:33:25;;;;;;;23.53;12.30;;;3.10;99.90;;;;;;5031665;28;20205;-25
2022/01/10 01:35:54;;;;;;;22.40;12.27;;;3.10;99.90;;;;;;5031163;28;20593;-25
2022/01/10 01:38:22;;;;;;;21.03;12.83;;;3.10;99.90;;;;;;5031126;28;20216;-25
2022/01/10 01:40:59;;;;;;;20.90;13.00;;;3.10;99.90;;;;;;5029808;28;20276;-25
2022/01/10 01:43:26;;;;;;;20.17;12.53;;;3.10;99.90;;;;;;5020958;28;20223;-25
2022/01/10 01:45:54;;;;;;;23.83;12.53;;;3.10;99.90;;;;;;5010333;28;20229;-25
2022/01/10 01:48:21;;;;;;;22.70;13.37;;;3.10;99.90;;;;;;5011562;28;20684;-25
2022/01/10 01:50:49;;;;;;;23.53;12.10;;;3.00;99.90;;;;;;5011050;28;20244;-25
2022/01/10 01:53:16;;;;;;;22.07;12.63;;;3.00;99.90;;;;;;5011276;28;20218;-25
2022/01/10 01:55:45;;;;;;;20.87;12.33;;;3.00;99.90;;;;;;5027109;28;20626;-25
2022/01/10 01:58:12;;;;;;;21.70;13.03;;;3.00;99.90;;;;;;5025521;28;20210;-25
2022/01/10 02:00:39;;;;;;;23.10;12.03;;;3.00;99.90;;;;;;5020875;28;20248;-25
2022/01/10 02:03:09;;;;;;;23.33;12.23;;;3.00;99.90;;;;;;5030818;28;20215;-24
2022/01/10 02:05:36;;;;;;;21.50;12.17;;;3.00;99.90;;;;;;5030195;28;20208;-25
2022/01/10 02:08:04;;;;;;;22.13;11.97;;;2.90;99.90;;;;;;5030095;28;20201;-25
2022/01/10 02:10:31;;;;;;;22.93;12.30;;;3.00;99.90;;;;;;5028457;28;20271;-25
2022/01/10 02:12:58;;;;;;;22.50;13.37;;;3.00;99.90;;;;;;5025294;28;20587;-24
2022/01/10 02:15:59;;;;;;;18.57;12.03;;;2.90;99.90;;;;;;5021728;28;20205;-25
2022/01/10 02:18:23;;;;;;;21.67;13.27;;;2.90;99.90;;;;;;5030611;28;20205;-25
2022/01/10 02:20:53;;;;;;;19.80;12.67;;;2.90;99.90;;;;;;5030103;28;20678;-24
2022/01/10 02:23:20;;;;;;;23.60;12.37;;;2.90;99.90;;;;;;5030405;28;20559;-25
2022/01/10 02:25:49;;;;;;;23.43;12.37;;;2.90;99.90;;;;;;5029456;28;20208;-25
2022/01/10 02:28:17;;;;;;;23.73;12.87;;;2.90;99.90;;;;;;5030182;28;20768;-25
2022/01/10 02:30:47;;;;;;;19.63;12.20;;;2.90;99.90;;;;;;5028942;28;20221;-25
2022/01/10 02:33:16;;;;;;;17.63;11.90;;;2.90;99.90;;;;;;5030316;28;20196;-25
2022/01/10 02:38:26;;;;;;;21.63;12.80;;;2.90;99.90;;;;;;5030632;28;20216;-25
2022/01/10 02:40:55;;;;;;;22.80;13.03;;;2.90;99.90;;;;;;5028087;28;20201;-24
2022/01/10 02:43:22;;;;;;;23.33;13.47;;;2.90;99.90;;;;;;5020019;28;20563;-25
2022/01/10 02:45:49;;;;;;;25.63;13.23;;;2.90;99.90;;;;;;5018629;28;20304;-25
2022/01/10 02:48:19;;;;;;;24.13;13.60;;;2.90;99.90;;;;;;5030363;28;20256;-24
2022/01/10 02:50:46;;;;;;;23.80;13.17;;;2.90;99.90;;;;;;5029670;28;20287;-25
2022/01/10 02:53:14;;;;;;;19.93;12.57;;;2.90;99.90;;;;;;5029001;28;20581;-25
2022/01/10 02:55:43;;;;;;;22.40;12.43;;;2.90;99.90;;;;;;5029452;28;20680;-24
2022/01/10 02:58:11;;;;;;;20.87;12.83;;;2.90;99.90;;;;;;5029826;28;20267;-25
2022/01/10 03:00:38;;;;;;;23.80;13.93;;;2.90;99.90;;;;;;5029660;28;20213;-24
2022/01/10 03:03:06;;;;;;;22.87;13.93;;;3.00;99.90;;;;;;5029428;28;20580;-25
2022/01/10 03:05:37;;;;;;;20.87;13.40;;;2.90;99.90;;;;;;5028343;28;20691;-25
2022/01/10 03:08:05;;;;;;;26.40;13.10;;;2.90;99.90;;;;;;5029648;28;20212;-25
2022/01/10 03:10:32;;;;;;;19.53;12.70;;;2.90;99.90;;;;;;5028783;28;20225;-25
2022/01/10 03:13:01;;;;;;;20.03;13.00;;;2.90;99.90;;;;;;5025000;28;20214;-24
2022/01/10 03:15:29;;;;;;;20.83;12.70;;;2.90;99.90;;;;;;5009806;28;20223;-25
2022/01/10 03:17:58;;;;;;;20.20;12.03;;;2.80;99.90;;;;;;5008799;28;20667;-25
2022/01/10 03:20:26;;;;;;;24.83;13.60;;;2.80;99.90;;;;;;5024055;28;20230;-25
2022/01/10 03:22:55;;;;;;;25.37;14.30;;;2.80;99.90;;;;;;5029482;28;20270;-25
2022/01/10 03:25:22;;;;;;;23.77;13.33;;;2.80;99.90;;;;;;5028769;28;20205;-25
2022/01/10 03:27:50;;;;;;;23.03;12.90;;;2.80;99.90;;;;;;5029399;28;20646;-25
2022/01/10 03:30:17;;;;;;;20.77;13.07;;;2.80;99.90;;;;;;5029190;28;20332;-25
2022/01/10 03:32:47;;;;;;;21.77;13.33;;;2.80;99.90;;;;;;5028160;28;20223;-25
2022/01/10 03:35:16;;;;;;;22.13;12.97;;;2.80;99.90;;;;;;5029145;28;20209;-25
2022/01/10 03:37:46;;;;;;;18.70;12.53;;;2.80;99.90;;;;;;5028861;28;20217;-25
2022/01/10 03:40:16;;;;;;;20.47;12.60;;;2.80;99.90;;;;;;5028846;28;20225;-24
2022/01/10 03:42:43;;;;;;;21.63;12.70;;;2.80;99.90;;;;;;5029270;28;20632;-25
2022/01/10 03:45:13;;;;;;;25.37;13.20;;;2.80;99.90;;;;;;5028894;28;20455;-25
2022/01/10 03:47:43;;;;;;;18.63;12.60;;;2.80;99.90;;;;;;5028293;28;20953;-24
2022/01/10 03:50:10;;;;;;;21.03;12.40;;;2.70;99.90;;;;;;5028774;28;20243;-24
2022/01/10 03:52:42;;;;;;;22.33;13.13;;;2.70;99.90;;;;;;5028753;28;20227;-25
2022/01/10 03:55:10;;;;;;;19.83;13.30;;;2.70;99.90;;;;;;5027262;28;20308;-25
2022/01/10 03:57:40;;;;;;;22.97;13.20;;;2.70;99.90;;;;;;5027452;28;20206;-24
2022/01/10 04:00:12;;;;;;;21.50;12.20;;;2.70;99.90;;;;;;5028953;28;20205;-24
2022/01/10 04:02:43;;;;;;;20.00;12.90;;;2.70;99.90;;;;;;5027994;28;20679;-25
2022/01/10 04:05:10;;;;;;;21.17;13.50;;;2.70;99.90;;;;;;5029193;28;20209;-25
2022/01/10 04:07:38;;;;;;;21.20;12.73;;;2.70;99.90;;;;;;5028800;28;20205;-25
2022/01/10 04:10:05;;;;;;;24.50;12.87;;;2.70;99.90;;;;;;5028643;28;20596;-25
2022/01/10 04:12:33;;;;;;;24.53;13.00;;;2.70;99.90;;;;;;5025936;28;20818;-25
2022/01/10 04:15:00;;;;;;;26.47;12.63;;;2.70;99.90;;;;;;5007860;28;20299;-25
2022/01/10 04:17:30;;;;;;;24.03;12.60;;;2.70;99.90;;;;;;5008089;28;20619;-25
2022/01/10 04:19:57;;;;;;;19.83;12.20;;;2.70;99.90;;;;;;5023704;28;20255;-27
2022/01/10 04:22:27;;;;;;;21.47;12.57;;;2.70;99.90;;;;;;5008690;28;20244;-27
2022/01/10 04:24:54;;;;;;;21.97;12.70;;;2.70;99.90;;;;;;5008821;28;20218;-27
2022/01/10 04:27:21;;;;;;;24.13;12.83;;;2.80;99.90;;;;;;5013684;28;20718;-27
2022/01/10 04:29:51;;;;;;;23.37;13.57;;;2.70;99.90;;;;;;5028721;28;20213;-27
2022/01/10 04:32:18;;;;;;;24.67;14.00;;;2.80;99.90;;;;;;5027377;28;20203;-27
2022/01/10 04:34:47;;;;;;;28.47;14.20;;;2.80;99.90;;;;;;5028428;28;20203;-27
2022/01/10 04:37:15;;;;;;;26.20;13.63;;;2.80;99.90;;;;;;5028260;28;20201;-27
2022/01/10 04:39:42;;;;;;;27.33;13.30;;;2.80;99.90;;;;;;5027109;28;20211;-27
2022/01/10 04:42:10;;;;;;;24.27;13.70;;;2.80;99.90;;;;;;5027873;28;20212;-27
2022/01/10 04:44:37;;;;;;;25.80;14.13;;;2.80;99.90;;;;;;5027754;28;20952;-27
2022/01/10 04:47:04;;;;;;;28.03;14.40;;;2.80;99.90;;;;;;5027124;28;20204;-27
2022/01/10 04:50:04;;;;;;;28.53;14.10;;;2.80;99.90;;;;;;5027936;28;20236;-28
2022/01/10 04:52:24;;;;;;;27.20;13.37;;;2.90;99.90;;;;;;5027612;28;20766;-27
2022/01/10 04:54:51;;;;;;;24.57;14.13;;;2.90;99.90;;;;;;5026695;28;20735;-27
2022/01/10 04:57:18;;;;;;;20.77;13.23;;;2.90;99.90;;;;;;5027993;28;20201;-27
2022/01/10 04:59:46;;;;;;;24.00;14.37;;;2.90;99.90;;;;;;5028330;28;20209;-25
2022/01/10 05:02:13;;;;;;;25.67;14.33;;;2.90;99.90;;;;;;5027375;28;20291;-25
2022/01/10 05:04:43;;;;;;;22.47;12.93;;;2.90;99.90;;;;;;5028973;28;20661;-25
2022/01/10 05:07:10;;;;;;;25.10;14.27;;;2.90;99.90;;;;;;5031705;28;20216;-24
2022/01/10 05:09:42;;;;;;;25.17;14.03;;;2.90;99.90;;;;;;5030653;28;20232;-24
2022/01/10 05:12:10;;;;;;;23.70;13.50;;;2.90;99.90;;;;;;5031483;28;20193;-25
2022/01/10 05:14:37;;;;;;;21.90;13.07;;;2.90;99.90;;;;;;5013684;28;20826;-25
2022/01/10 05:17:05;;;;;;;28.63;13.90;;;3.00;99.90;;;;;;5010704;28;20216;-27
2022/01/10 05:19:32;;;;;;;24.70;14.40;;;3.00;99.90;;;;;;5027208;28;20604;-27
2022/01/10 05:22:00;;;;;;;27.47;13.33;;;3.00;99.90;;;;;;5031118;28;20667;-25
2022/01/10 05:24:27;;;;;;;25.93;13.67;;;3.00;99.90;;;;;;5031453;28;20217;-25
2022/01/10 05:26:54;;;;;;;23.93;13.13;;;3.00;99.90;;;;;;5029496;28;20284;-25
2022/01/10 05:29:22;;;;;;;22.87;13.23;;;2.90;99.90;;;;;;5029866;28;20201;-25
2022/01/10 05:31:49;;;;;;;22.30;13.77;;;2.90;99.90;;;;;;5029918;28;20235;-25
2022/01/10 05:34:19;;;;;;;20.53;13.67;;;2.90;99.90;;;;;;5031080;28;20213;-25
2022/01/10 05:36:47;;;;;;;33.70;13.80;;;2.90;99.90;;;;;;5030976;28;20221;-24
2022/01/10 05:39:14;;;;;;;22.90;12.97;;;2.90;99.90;;;;;;5031199;28;20263;-24
2022/01/10 05:41:46;;;;;;;25.70;13.57;;;2.90;99.90;;;;;;5030775;28;20241;-24
2022/01/10 05:44:13;;;;;;;22.23;12.80;;;2.90;99.90;;;;;;5026414;28;20205;-24
2022/01/10 05:46:42;;;;;;;24.50;13.60;;;2.90;99.90;;;;;;5008963;28;20205;-25
2022/01/10 05:49:15;;;;;;;21.87;12.30;;;2.90;99.90;;;;;;5010715;28;20688;-27
2022/01/10 05:51:42;;;;;;;23.60;12.73;;;2.90;99.90;;;;;;5010934;28;20225;-27
2022/01/10 05:54:10;;;;;;;22.87;12.13;;;2.90;99.90;;;;;;5030657;28;20201;-27
2022/01/10 05:56:37;;;;;;;22.63;12.23;;;3.00;99.90;;;;;;5030392;28;20562;-27
2022/01/10 05:59:04;;;;;;;23.47;11.90;;;2.90;99.90;;;;;;5045878;28;20219;-27
2022/01/10 06:01:31;;;;;;;23.57;12.43;;;3.00;99.90;;;;;;5027946;28;20212;-27
2022/01/10 06:03:59;;;;;;;21.40;11.57;;;3.00;99.90;;;;;;5030432;28;20197;-27
2022/01/10 06:06:26;;;;;;;17.27;9.70;;;3.00;99.90;;;;;;5030443;28;20205;-25
2022/01/10 06:08:53;;;;;;;23.67;13.03;;;3.00;99.90;;;;;;5061832;28;20702;-25
2022/01/10 06:11:23;;;;;;;21.93;12.30;;;3.00;99.90;;;;;;5029795;28;20221;-25
2022/01/10 06:13:52;;;;;;;19.67;10.53;;;3.00;99.90;;;;;;5031102;28;20201;-25
2022/01/10 06:16:21;;;;;;;20.53;10.90;;;3.00;99.90;;;;;;5028385;28;20296;-25
2022/01/10 06:18:49;;;;;;;18.33;9.80;;;3.00;99.90;;;;;;5030519;28;20288;-25
2022/01/10 06:21:16;;;;;;;18.70;9.80;;;3.00;99.90;;;;;;5030778;28;20205;-25
2022/01/10 06:23:43;;;;;;;20.60;11.00;;;3.00;99.90;;;;;;5030843;28;20258;-25
2022/01/10 06:26:15;;;;;;;17.87;9.50;;;3.00;99.90;;;;;;5030022;28;20212;-25
2022/01/10 06:28:42;;;;;;;18.60;9.80;;;3.00;99.90;;;;;;5030687;28;20636;-25
2022/01/10 06:31:10;;;;;;;20.70;10.70;;;3.00;99.90;;;;;;5029522;28;20774;-26
2022/01/10 06:33:37;;;;;;;22.40;10.20;;;3.00;99.90;;;;;;5029126;28;20209;-24
2022/01/10 06:36:05;;;;;;;18.57;10.10;;;3.00;99.90;;;;;;5030260;28;20292;-25
2022/01/10 06:38:34;;;;;;;17.70;9.63;;;2.90;99.90;;;;;;5030388;28;20207;-25
2022/01/10 06:41:02;;;;;;;19.53;9.80;;;2.90;99.90;;;;;;5030238;28;20204;-25
2022/01/10 06:43:29;;;;;;;17.97;9.00;;;2.90;99.90;;;;;;5028549;28;20213;-25
2022/01/10 06:45:56;;;;;;;19.13;9.53;;;2.90;99.90;;;;;;5009327;28;20296;-25
2022/01/10 06:48:24;;;;;;;17.53;9.97;;;2.90;99.90;;;;;;5010105;28;20209;-25
2022/01/10 06:50:51;;;;;;;19.73;10.27;;;2.90;99.90;;;;;;5009341;28;20241;-25
2022/01/10 06:53:21;;;;;;;19.60;10.33;;;2.90;99.90;;;;;;5040421;28;20214;-24
2022/01/10 06:55:49;;;;;;;18.70;9.93;;;2.80;99.90;;;;;;5009040;28;20694;-24
2022/01/10 06:58:16;;;;;;;17.70;10.27;;;2.80;99.90;;;;;;5009695;28;20306;-25
2022/01/10 07:00:44;;;;;;;17.83;8.93;;;2.80;99.90;;;;;;5049284;28;20785;-25
2022/01/10 07:03:11;;;;;;;20.37;10.23;;;2.80;99.90;;;;;;5029400;28;20209;-25
2022/01/10 07:05:39;;;;;;;20.03;10.70;;;2.80;99.90;;;;;;5029029;28;20201;-25
2022/01/10 07:08:09;;;;;;;20.40;10.03;;;2.80;99.90;;;;;;5029058;28;20199;-25
2022/01/10 07:10:41;;;;;;;20.90;11.27;;;2.80;99.90;;;;;;5027661;28;20220;-24
2022/01/10 07:13:09;;;;;;;19.63;10.00;;;2.80;99.90;;;;;;5029394;28;20607;-25
2022/01/10 07:15:39;;;;;;;20.03;10.30;;;2.80;99.90;;;;;;5024296;28;20217;-24
2022/01/10 07:18:06;;;;;;;22.03;10.50;;;2.80;99.90;;;;;;5021017;28;20212;-25
2022/01/10 07:20:36;;;;;;;19.60;10.50;;;2.80;99.90;;;;;;5029032;28;20299;-24
2022/01/10 07:23:05;;;;;;;19.67;10.57;;;2.80;99.90;;;;;;5028717;28;20205;-25
2022/01/10 07:25:32;;;;;;;18.87;9.83;;;2.80;99.90;;;;;;5028165;28;20204;-25
2022/01/10 07:27:59;;;;;;;16.80;9.87;;;2.80;99.90;;;;;;5059640;28;20217;-25
2022/01/10 07:30:27;;;;;;;19.80;10.03;;;2.80;99.90;;;;;;5028609;28;20217;-25
2022/01/10 07:32:57;;;;;;;17.87;9.80;;;2.80;99.90;;;;;;5027559;28;20196;-25
2022/01/10 07:35:24;;;;;;;19.67;10.80;;;2.80;99.90;;;;;;5028141;28;20205;-25
2022/01/10 07:37:51;;;;;;;20.83;11.50;;;2.80;99.90;;;;;;5028357;28;20638;-24
2022/01/10 07:40:19;;;;;;;21.10;11.43;;;2.80;99.90;;;;;;5028085;28;20289;-25
2022/01/10 07:42:46;;;;;;;16.77;9.37;;;2.80;99.90;;;;;;5028099;28;20207;-25
2022/01/10 07:45:13;;;;;;;15.23;8.63;;;2.80;99.90;;;;;;5028210;28;20295;-25
2022/01/10 07:47:43;;;;;;;20.23;10.37;;;2.80;99.90;;;;;;5027189;28;20193;-25
2022/01/10 07:50:14;;;;;;;20.33;10.47;;;2.80;99.90;;;;;;5027075;28;20679;-25
2022/01/10 07:52:41;;;;;;;14.87;10.07;;;2.80;99.90;;;;;;5028431;28;20499;-25
2022/01/10 07:55:09;;;;;;;19.73;11.17;;;2.80;99.90;;;;;;5028325;28;20201;-24
2022/01/10 07:57:36;;;;;;;18.10;10.30;;;2.80;99.90;;;;;;5028039;28;20262;-25
2022/01/10 08:00:06;;;;;;;22.90;10.87;;;2.80;99.90;;;;;;5028640;28;20627;-24
2022/01/10 08:02:35;;;;;;;17.17;10.20;;;2.80;99.90;;;;;;5027429;28;20201;-25
2022/01/10 08:05:04;;;;;;;20.90;10.77;;;2.80;99.90;;;;;;5028316;28;20666;-27
2022/01/10 08:07:31;;;;;;;21.53;11.33;;;2.80;99.90;;;;;;5028228;28;20201;-27
2022/01/10 08:09:58;;;;;;;22.60;12.00;;;2.80;99.90;;;;;;5027904;28;20207;-27
2022/01/10 08:12:25;;;;;;;22.00;11.20;;;2.80;99.90;;;;;;5027546;28;20287;-27
2022/01/10 08:14:53;;;;;;;19.00;10.43;;;2.80;99.90;;;;;;5027988;28;20193;-27
2022/01/10 08:17:20;;;;;;;22.77;10.57;;;2.80;99.90;;;;;;5008406;28;20197;-27
2022/01/10 08:19:47;;;;;;;19.37;11.47;;;2.80;99.90;;;;;;5008242;28;20759;-24
2022/01/10 08:22:15;;;;;;;18.10;10.73;;;2.80;99.90;;;;;;5008094;28;20202;-26
2022/01/10 08:24:44;;;;;;;17.50;10.33;;;2.80;99.90;;;;;;5008324;28;20213;-27
2022/01/10 08:27:12;;;;;;;17.97;10.33;;;2.80;99.90;;;;;;5027101;28;20262;-27
2022/01/10 08:29:39;;;;;;;18.60;10.83;;;2.90;99.90;;;;;;5059314;28;20217;-27
2022/01/10 08:32:08;;;;;;;20.67;10.80;;;2.90;99.90;;;;;;5026621;28;20232;-27
2022/01/10 08:34:35;;;;;;;18.97;10.23;;;2.90;99.90;;;;;;5042683;28;20288;-27
2022/01/10 08:37:05;;;;;;;19.63;10.90;;;2.90;99.90;;;;;;5027578;28;20912;-27
2022/01/10 08:39:33;;;;;;;15.23;9.87;;;2.90;99.90;;;;;;5028226;28;20224;-27
2022/01/10 08:42:04;;;;;;;19.70;10.50;;;2.90;99.90;;;;;;5062476;28;20307;-27
2022/01/10 08:44:32;;;;;;;19.17;10.70;;;2.90;99.90;;;;;;5032272;28;20631;-27
2022/01/10 08:47:01;;;;;;;21.70;11.60;;;2.90;99.90;;;;;;5031117;28;20739;-27
2022/01/10 08:49:31;;;;;;;18.90;10.60;;;2.90;99.90;;;;;;5032114;28;20251;-26
2022/01/10 08:51:58;;;;;;;20.67;11.70;;;2.90;99.90;;;;;;5031835;28;20278;-27
2022/01/10 08:54:26;;;;;;;22.50;11.03;;;2.90;99.90;;;;;;5030544;28;20196;-27
2022/01/10 08:56:53;;;;;;;21.23;11.53;;;2.90;99.90;;;;;;5031219;28;20515;-27
2022/01/10 08:59:23;;;;;;;20.07;10.80;;;2.90;99.90;;;;;;5031671;28;20200;-27
2022/01/10 09:01:51;;;;;;;19.50;11.23;;;2.90;99.90;;;;;;5030697;28;20204;-27
2022/01/10 09:04:21;;;;;;;24.97;12.97;;;2.90;99.90;;;;;;5030245;28;20683;-27
2022/01/10 09:06:50;;;;;;;22.73;12.57;;;2.90;99.90;;;;;;5031249;28;20221;-28
2022/01/10 09:09:19;;;;;;;22.83;11.70;;;3.00;99.90;;;;;;5030141;28;20254;-27
2022/01/10 09:11:46;;;;;;;22.20;11.83;;;3.00;99.90;;;;;;5030758;28;20324;-27
2022/01/10 09:14:14;;;;;;;23.50;12.40;;;3.00;99.90;;;;;;5031310;28;20707;-27
2022/01/10 09:16:42;;;;;;;20.77;10.67;;;3.00;99.90;;;;;;5024976;28;20227;-27
2022/01/10 09:19:10;;;;;;;22.87;11.40;;;3.00;99.90;;;;;;5031232;28;20284;-24
2022/01/10 09:21:39;;;;;;;24.40;12.30;;;3.00;99.90;;;;;;5031244;28;20662;-27
2022/01/10 09:24:06;;;;;;;21.43;11.20;;;3.00;99.90;;;;;;5030231;28;20229;-27
2022/01/10 09:26:36;;;;;;;23.43;11.80;;;3.00;99.90;;;;;;5031022;28;20228;-27
2022/01/10 09:29:04;;;;;;;25.63;12.03;;;3.10;99.90;;;;;;5031019;28;20236;-25
2022/01/10 09:31:32;;;;;;;24.97;12.40;;;3.10;99.90;;;;;;5029896;28;20303;-25
2022/01/10 09:34:00;;;;;;;25.23;12.30;;;3.10;99.90;;;;;;5030764;28;20214;-25
2022/01/10 09:36:29;;;;;;;19.57;11.23;;;3.10;99.90;;;;;;5030816;28;20213;-27
2022/01/10 09:38:57;;;;;;;22.33;11.90;;;3.10;99.90;;;;;;5030977;28;20233;-27
2022/01/10 09:41:25;;;;;;;21.33;11.33;;;3.20;99.90;;;;;;5030569;28;20270;-27
2022/01/10 09:44:01;;;;;;;20.23;11.00;;;3.20;99.90;;;;;;5029783;28;20208;-27
2022/01/10 09:46:29;;;;;;;21.37;10.87;;;3.20;99.90;;;;;;5029725;28;20212;-27
2022/01/10 09:49:02;;;;;;;20.73;11.43;;;3.20;99.90;;;;;;5030954;28;20240;-27
2022/01/10 09:51:35;;;;;;;19.77;10.97;;;3.20;99.90;;;;;;5030298;28;20694;-27
2022/01/10 09:54:03;;;;;;;20.10;10.97;;;3.20;99.90;;;;;;5029351;28;20694;-27
2022/01/10 09:56:34;;;;;;;17.87;10.07;;;3.30;99.90;;;;;;5030236;28;20206;-27
2022/01/10 09:59:05;;;;;;;17.70;10.27;;;3.30;99.90;;;;;;5030587;28;20201;-27
2022/01/10 10:01:34;;;;;;;16.63;10.60;;;3.30;99.90;;;;;;5028411;28;20258;-27
2022/01/10 10:04:03;;;;;;;17.43;10.47;;;3.30;99.90;;;;;;5030334;28;20244;-27
2022/01/10 10:06:32;;;;;;;21.20;11.07;;;3.40;99.90;;;;;;5030155;28;20287;-27
2022/01/10 10:09:06;;;;;;;18.10;11.10;;;3.40;99.90;;;;;;5030337;28;20216;-27
2022/01/10 10:11:47;;;;;;;20.40;11.33;;;3.40;99.90;;;;;;5029766;28;20225;-27
2022/01/10 10:14:17;;;;;;;17.40;10.40;;;3.40;99.90;;;;;;5031075;28;20276;-27
2022/01/10 10:16:52;;;;;;;20.53;11.23;;;3.40;99.90;;;;;;5029736;28;20205;-27
2022/01/10 10:19:22;;;;;;;18.90;11.47;;;3.50;99.90;;;;;;5030550;28;20200;-27
2022/01/10 10:21:53;;;;;;;17.03;10.60;;;3.50;99.90;;;;;;5030215;28;20701;-27
2022/01/10 10:24:22;;;;;;;23.07;11.40;;;3.50;99.90;;;;;;5030923;28;20564;-27
2022/01/10 10:26:52;;;;;;;18.00;11.20;;;3.50;99.90;;;;;;5030439;28;20326;-27
2022/01/10 10:29:22;;;;;;;19.43;12.03;;;3.60;99.90;;;;;;5029304;28;20213;-27
2022/01/10 10:31:57;;;;;;;22.93;12.17;;;3.60;99.90;;;;;;5029327;28;20766;-27
2022/01/10 10:34:27;;;;;;;17.60;11.40;;;3.60;99.90;;;;;;5030769;28;20551;-27
2022/01/10 10:37:08;;;;;;;19.37;11.73;;;3.60;99.90;;;;;;5028371;28;20213;-27
2022/01/10 10:39:47;;;;;;;21.73;12.63;;;3.70;99.90;;;;;;5029981;28;20280;-27
2022/01/10 10:42:16;;;;;;;20.47;12.37;;;3.70;99.90;;;;;;5027849;28;20678;-27
2022/01/10 10:44:44;;;;;;;18.60;11.53;;;3.70;99.90;;;;;;5029799;28;20193;-27
2022/01/10 10:47:12;;;;;;;19.83;11.90;;;3.80;99.90;;;;;;5019813;28;20233;-27
2022/01/10 10:49:47;;;;;;;17.70;10.67;;;3.80;99.90;;;;;;5010038;28;20241;-26
2022/01/10 10:52:17;;;;;;;17.53;11.13;;;3.80;99.90;;;;;;5024565;28;20588;-27
2022/01/10 10:54:44;;;;;;;21.00;11.67;;;3.80;99.90;;;;;;5010178;28;20213;-27
2022/01/10 10:57:14;;;;;;;19.50;11.47;;;3.90;99.90;;;;;;5009494;28;20622;-27
2022/01/10 10:59:43;;;;;;;20.30;11.70;;;3.90;99.90;;;;;;5025929;28;20205;-27
2022/01/10 11:02:12;;;;;;;20.23;12.13;;;3.90;99.90;;;;;;5027793;28;20209;-27
2022/01/10 11:04:41;;;;;;;20.50;13.17;;;3.90;99.90;;;;;;5027783;28;20264;-27
2022/01/10 11:07:09;;;;;;;17.00;11.20;;;3.90;99.90;;;;;;5011426;28;20319;-27
2022/01/10 11:09:57;;;;;;;19.60;12.30;;;4.00;99.90;;;;;;5028867;28;20258;-27
2022/01/10 11:12:30;;;;;;;20.33;12.67;;;4.00;99.90;;;;;;5028396;28;20275;-27
2022/01/10 11:14:59;;;;;;;18.37;12.00;;;4.00;99.90;;;;;;5029176;28;20189;-25
2022/01/10 11:17:30;;;;;;;18.17;11.87;;;4.00;99.90;;;;;;5020567;28;20194;-25
2022/01/10 11:20:19;;;;;;;19.20;12.47;;;4.10;99.90;;;;;;5025076;28;20664;-25
2022/01/10 11:22:49;;;;;;;17.87;11.50;;;4.10;99.90;;;;;;5008613;28;20205;-25
2022/01/10 11:25:28;;;;;;;17.73;11.47;;;4.10;99.90;;;;;;5009373;28;20209;-25
2022/01/10 11:28:00;;;;;;;19.83;12.53;;;4.10;99.90;;;;;;5009574;28;20256;-25
2022/01/10 11:30:33;;;;;;;18.07;12.17;;;4.10;99.90;;;;;;5024454;28;20324;-25
2022/01/10 11:33:07;;;;;;;18.57;12.20;;;4.20;99.90;;;;;;5019808;28;20274;-25
2022/01/10 11:35:57;;;;;;;18.63;12.00;;;4.20;99.90;;;;;;5028086;28;20205;-25
2022/01/10 11:38:29;;;;;;;19.87;13.13;;;4.20;99.90;;;;;;5029569;28;20202;-25
2022/01/10 11:41:10;;;;;;;19.77;12.50;;;4.20;99.90;;;;;;5028581;28;20643;-25
2022/01/10 11:43:47;;;;;;;17.93;12.83;;;4.20;99.90;;;;;;5029629;28;20288;-25
2022/01/10 11:46:34;;;;;;;20.80;13.10;;;4.20;99.90;;;;;;5027392;28;20564;-25
2022/01/10 11:49:12;;;;;;;19.70;12.67;;;4.20;99.90;;;;;;5027636;28;20197;-25
2022/01/10 11:51:41;;;;;;;22.00;13.93;;;4.30;99.90;;;;;;5028232;28;20689;-25
2022/01/10 11:54:28;;;;;;;22.83;14.77;;;4.30;99.90;;;;;;5028835;28;20283;-25
2022/01/10 11:57:00;;;;;;;25.00;15.37;;;4.30;99.90;;;;;;5028287;28;20299;-25
2022/01/10 11:59:33;;;;;;;24.40;15.73;;;4.30;99.90;;;;;;5028787;28;20200;-24
2022/01/10 12:02:18;;;;;;;23.10;13.77;;;4.30;99.90;;;;;;5026734;28;20251;-25
2022/01/10 12:05:00;;;;;;;23.07;14.63;;;4.40;99.90;;;;;;5027402;28;20205;-25
2022/01/10 12:07:28;;;;;;;22.07;15.13;;;4.40;99.90;;;;;;5028254;28;20690;-25
2022/01/10 12:10:16;;;;;;;22.40;15.33;;;4.40;99.90;;;;;;5027453;28;20252;-22
2022/01/10 12:12:49;;;;;;;22.27;14.60;;;4.40;99.90;;;;;;5026469;28;20306;-22
2022/01/10 12:15:17;;;;;;;22.93;14.17;;;4.40;99.90;;;;;;5028127;28;20244;-22
2022/01/10 12:17:44;;;;;;;20.53;14.33;;;4.40;99.90;;;;;;5017565;28;20202;-23
2022/01/10 12:20:12;;;;;;;20.90;13.70;;;4.40;99.90;;;;;;5008286;28;20225;-22
2022/01/10 12:22:42;;;;;;;20.03;13.30;;;4.50;99.90;;;;;;5008277;28;20328;-33
2022/01/10 12:25:10;;;;;;;21.03;13.90;;;4.60;99.90;;;;;;5027473;28;20247;-25
2022/01/10 12:27:38;;;;;;;18.03;12.60;;;4.60;99.90;;;;;;5028338;28;20208;-25
2022/01/10 12:30:06;;;;;;;19.10;13.13;;;4.60;99.90;;;;;;5028064;28;20213;-25
2022/01/10 12:32:35;;;;;;;17.97;12.37;;;4.60;99.90;;;;;;5027050;28;20225;-25
2022/01/10 12:35:05;;;;;;;18.77;13.20;;;4.60;99.90;;;;;;5028503;28;20207;-32
2022/01/10 12:37:33;;;;;;;18.50;12.50;;;4.70;99.90;;;;;;5027834;28;20518;-31
2022/01/10 12:40:00;;;;;;;18.00;12.80;;;4.70;99.90;;;;;;5027957;28;20204;-27
2022/01/10 12:42:29;;;;;;;19.50;13.20;;;4.70;99.90;;;;;;5027417;28;20240;-27
2022/01/10 12:44:57;;;;;;;19.13;13.67;;;4.70;99.90;;;;;;5027731;28;20211;-27
2022/01/10 12:47:25;;;;;;;19.23;13.13;;;4.70;99.90;;;;;;5026917;28;20205;-27
2022/01/10 12:49:54;;;;;;;17.93;13.33;;;4.70;99.90;;;;;;5026187;28;20298;-27
2022/01/10 12:52:21;;;;;;;20.67;13.40;;;4.70;99.90;;;;;;5027764;28;20290;-27
2022/01/10 12:54:51;;;;;;;21.17;14.30;;;4.70;99.90;;;;;;5027977;28;20219;-25
2022/01/10 12:57:19;;;;;;;18.33;13.00;;;4.60;99.90;;;;;;5027070;28;20205;-27
2022/01/10 12:59:47;;;;;;;22.37;14.50;;;4.70;99.90;;;;;;5026447;28;20251;-27
2022/01/10 13:02:14;;;;;;;21.93;15.27;;;4.70;99.90;;;;;;5026729;28;20665;-27
2022/01/10 13:05:07;;;;;;;20.97;14.07;;;4.70;99.90;;;;;;5027696;28;20201;-27